createdAt,value
2018-12-25T00:02:47.264Z,54.20
2018-12-25T00:05:29.421Z,53.20
2018-12-25T00:08:10.093Z,52.70
2018-12-25T00:10:51.393Z,52.40
2018-12-25T00:13:32.636Z,52.70
2018-12-25T00:16:13.855Z,52.70
2018-12-25T00:18:54.204Z,52.60
2018-12-25T00:21:34.533Z,54.70
2018-12-25T00:24:15.830Z,54.10
2018-12-25T00:26:56.635Z,53.50
2018-12-25T00:29:37.844Z,53.50
2018-12-25T00:32:18.899Z,52.50
2018-12-25T00:35:00.005Z,52.30
2018-12-25T00:37:41.219Z,51.80
2018-12-25T00:40:22.433Z,51.20
2018-12-25T00:43:03.608Z,52.10
2018-12-25T00:45:44.634Z,50.50
2018-12-25T00:48:25.640Z,49.90
2018-12-25T00:53:55.835Z,48.60
2018-12-25T00:56:36.951Z,48.00
2018-12-25T00:59:18.349Z,48.20
2018-12-25T01:01:59.491Z,47.10
2018-12-25T01:04:29.172Z,47.30
2018-12-25T01:07:17.989Z,48.50
2018-12-25T01:09:50.176Z,47.30
2018-12-25T01:12:38.648Z,46.20
2018-12-25T01:15:20.328Z,46.70
2018-12-25T01:18:01.442Z,48.20
2018-12-25T01:20:42.545Z,46.10
2018-12-25T01:23:23.444Z,45.50
2018-12-25T01:26:04.596Z,47.10
2018-12-25T01:28:45.616Z,45.40
2018-12-25T01:31:27.265Z,44.40
2018-12-25T01:34:07.868Z,44.90
2018-12-25T01:36:48.796Z,45.80
2018-12-25T01:39:29.879Z,45.50
2018-12-25T01:42:11.048Z,45.10
2018-12-25T01:44:52.335Z,45.50
2018-12-25T01:47:33.407Z,45.70
2018-12-25T01:50:14.575Z,46.10
2018-12-25T01:52:55.675Z,46.10
2018-12-25T01:55:37.082Z,46.00
2018-12-25T01:58:05.598Z,46.20
2018-12-25T02:00:54.242Z,46.40
2018-12-25T02:03:36.378Z,45.50
2018-12-25T02:06:21.029Z,45.90
2018-12-25T02:09:01.383Z,45.10
2018-12-25T02:11:42.403Z,45.70
2018-12-25T02:14:23.594Z,45.50
2018-12-25T02:17:04.585Z,45.40
2018-12-25T02:19:45.590Z,46.70
2018-12-25T02:22:26.553Z,46.00
2018-12-25T02:25:07.524Z,45.50
2018-12-25T02:27:48.537Z,45.60
2018-12-25T02:30:29.766Z,45.50
2018-12-25T02:33:10.953Z,45.50
2018-12-25T02:35:52.428Z,45.60
2018-12-25T02:38:33.825Z,45.50
2018-12-25T02:41:14.723Z,46.40
2018-12-25T02:43:56.466Z,45.00
2018-12-25T02:46:36.942Z,45.60
2018-12-25T02:49:18.445Z,45.00
2018-12-25T02:51:59.371Z,44.20
2018-12-25T02:54:40.308Z,44.20
2018-12-25T02:57:21.589Z,44.00
2018-12-25T03:00:02.440Z,44.10
2018-12-25T03:02:43.539Z,43.20
2018-12-25T03:08:24.809Z,43.10
2018-12-25T03:11:05.834Z,44.60
2018-12-25T03:13:46.925Z,45.50
2018-12-25T03:16:28.079Z,45.50
2018-12-25T03:19:09.291Z,46.80
2018-12-25T03:21:50.243Z,46.00
2018-12-25T03:24:30.907Z,46.20
2018-12-25T03:27:12.263Z,46.10
2018-12-25T03:29:53.794Z,45.70
2018-12-25T03:32:34.284Z,45.60
2018-12-25T03:35:15.080Z,46.00
2018-12-25T03:37:56.744Z,45.70
2018-12-25T03:40:37.371Z,45.20
2018-12-25T03:43:18.205Z,45.90
2018-12-25T03:45:57.884Z,45.20
2018-12-25T03:48:38.293Z,44.90
2018-12-25T03:51:18.311Z,45.50
2018-12-25T03:53:58.377Z,45.20
2018-12-25T03:56:38.768Z,44.60
2018-12-25T03:59:06.879Z,45.30
2018-12-25T04:01:36.091Z,45.60
2018-12-25T04:04:18.143Z,45.60
2018-12-25T04:06:59.703Z,44.60
2018-12-25T04:09:42.310Z,45.20
2018-12-25T04:12:23.691Z,45.20
2018-12-25T04:15:04.659Z,45.60
2018-12-25T04:17:46.088Z,45.50
2018-12-25T04:20:26.810Z,45.60
2018-12-25T04:23:07.780Z,46.30
2018-12-25T04:25:48.987Z,45.30
2018-12-25T04:28:29.944Z,44.20
2018-12-25T04:31:11.176Z,45.70
2018-12-25T04:33:52.190Z,45.30
2018-12-25T04:36:33.500Z,45.30
2018-12-25T04:39:14.514Z,44.70
2018-12-25T04:41:55.959Z,44.20
2018-12-25T04:44:36.854Z,44.30
2018-12-25T04:47:17.743Z,44.40
2018-12-25T04:49:58.887Z,44.00
2018-12-25T04:52:39.855Z,43.80
2018-12-25T04:55:20.849Z,43.60
2018-12-25T04:58:02.131Z,44.30
2018-12-25T05:00:43.129Z,43.80
2018-12-25T05:03:24.268Z,43.90
2018-12-25T05:06:05.512Z,43.70
2018-12-25T05:08:46.602Z,43.80
2018-12-25T05:11:27.633Z,44.00
2018-12-25T05:14:15.936Z,43.10
2018-12-25T05:16:55.663Z,43.40
2018-12-25T05:19:35.482Z,43.00
2018-12-25T05:22:15.586Z,45.00
2018-12-25T05:24:56.761Z,44.70
2018-12-25T05:27:37.562Z,43.70
2018-12-25T05:30:18.717Z,44.30
2018-12-25T05:33:00.022Z,42.70
2018-12-25T05:35:41.811Z,43.90
2018-12-25T05:38:27.372Z,42.10
2018-12-25T05:41:08.008Z,43.40
2018-12-25T05:43:49.034Z,41.80
2018-12-25T05:46:30.316Z,42.40
2018-12-25T05:49:11.191Z,42.50
2018-12-25T05:51:52.304Z,41.20
2018-12-25T05:54:33.795Z,41.30
2018-12-25T05:57:14.406Z,41.30
2018-12-25T05:59:55.330Z,41.70
2018-12-25T06:02:36.390Z,41.60
2018-12-25T06:05:17.766Z,42.20
2018-12-25T06:07:57.306Z,41.90
2018-12-25T06:13:18.435Z,41.00
2018-12-25T06:15:58.352Z,42.20
2018-12-25T06:18:38.348Z,41.30
2018-12-25T06:21:05.398Z,41.10
2018-12-25T06:23:54.100Z,41.20
2018-12-25T06:26:35.512Z,41.40
2018-12-25T06:29:16.383Z,41.40
2018-12-25T06:31:57.930Z,41.30
2018-12-25T06:34:39.383Z,41.20
2018-12-25T06:37:19.118Z,41.50
2018-12-25T06:39:47.411Z,44.20
2018-12-25T06:42:36.802Z,44.70
2018-12-25T06:45:23.105Z,43.90
2018-12-25T06:48:03.101Z,43.80
2018-12-25T06:50:43.483Z,43.80
2018-12-25T06:53:23.158Z,43.40
2018-12-25T06:56:02.924Z,43.10
2018-12-25T06:58:31.057Z,45.50
2018-12-25T07:01:18.760Z,44.10
2018-12-25T07:04:01.002Z,44.20
2018-12-25T07:06:41.949Z,45.10
2018-12-25T07:09:25.649Z,45.50
2018-12-25T07:12:06.303Z,45.10
2018-12-25T07:14:47.315Z,44.00
2018-12-25T07:17:28.390Z,43.70
2018-12-25T07:20:09.271Z,43.30
2018-12-25T07:22:50.383Z,42.60
2018-12-25T07:25:31.579Z,42.60
2018-12-25T07:28:13.130Z,42.60
2018-12-25T07:30:54.519Z,42.10
2018-12-25T07:33:35.670Z,42.30
2018-12-25T07:36:03.725Z,42.30
2018-12-25T07:38:51.401Z,42.60
2018-12-25T07:41:33.529Z,42.60
2018-12-25T07:44:14.948Z,41.30
2018-12-25T07:49:52.475Z,42.40
2018-12-25T07:52:19.671Z,42.90
2018-12-25T07:55:06.414Z,42.30
2018-12-25T07:57:46.121Z,42.70
2018-12-25T08:00:26.006Z,43.70
2018-12-25T08:03:06.071Z,43.90
2018-12-25T08:05:46.910Z,45.40
2018-12-25T08:08:27.120Z,44.90
2018-12-25T08:11:07.157Z,44.70
2018-12-25T08:13:47.048Z,44.20
2018-12-25T08:19:23.775Z,44.50
2018-12-25T08:22:03.700Z,44.50
2018-12-25T08:24:31.070Z,43.80
2018-12-25T08:27:19.722Z,43.70
2018-12-25T08:29:59.707Z,43.80
2018-12-25T08:32:39.844Z,45.50
2018-12-25T08:35:19.849Z,45.70
2018-12-25T08:37:59.907Z,46.10
2018-12-25T08:40:27.179Z,45.80
2018-12-25T08:43:16.010Z,46.20
2018-12-25T08:48:46.421Z,45.40
2018-12-25T08:51:26.378Z,45.80
2018-12-25T08:54:07.412Z,45.80
2018-12-25T08:56:47.866Z,44.90
2018-12-25T08:59:27.732Z,45.70
2018-12-25T09:02:09.359Z,45.80
2018-12-25T09:04:49.950Z,45.60
2018-12-25T09:07:30.953Z,45.60
2018-12-25T09:10:12.255Z,44.80
2018-12-25T09:12:53.810Z,45.30
2018-12-25T09:15:35.226Z,45.70
2018-12-25T09:18:16.557Z,44.90
2018-12-25T09:20:57.708Z,45.10
2018-12-25T09:23:38.710Z,45.00
2018-12-25T09:26:20.157Z,44.80
2018-12-25T09:31:42.117Z,44.60
2018-12-25T09:34:10.610Z,45.70
2018-12-25T09:36:59.225Z,44.60
2018-12-25T09:39:41.111Z,46.10
2018-12-25T09:42:22.194Z,45.70
2018-12-25T09:45:02.977Z,45.50
2018-12-25T09:47:44.279Z,45.90
2018-12-25T09:50:13.523Z,45.60
2018-12-25T09:53:02.263Z,45.70
2018-12-25T09:55:44.320Z,45.80
2018-12-25T09:58:23.980Z,45.70
2018-12-25T10:01:04.795Z,46.20
2018-12-25T10:03:45.795Z,45.70
2018-12-25T10:06:26.655Z,45.80
2018-12-25T10:11:56.583Z,47.80
2018-12-25T10:14:37.230Z,46.70
2018-12-25T10:17:16.819Z,46.80
2018-12-25T10:19:57.974Z,47.10
2018-12-25T10:22:38.731Z,45.70
2018-12-25T10:25:24.655Z,45.20
2018-12-25T10:28:06.683Z,45.00
2018-12-25T10:30:47.432Z,43.90
2018-12-25T10:33:17.164Z,43.80
2018-12-25T10:36:05.744Z,43.40
2018-12-25T10:38:46.004Z,44.50
2018-12-25T10:41:25.715Z,43.00
2018-12-25T10:44:06.287Z,41.80
2018-12-25T10:46:45.808Z,41.40
2018-12-25T10:49:25.987Z,40.40
2018-12-25T10:52:11.498Z,40.50
2018-12-25T10:54:54.984Z,40.50
2018-12-25T10:57:35.441Z,40.10
2018-12-25T11:00:15.479Z,40.50
2018-12-25T11:02:55.669Z,40.70
2018-12-25T11:05:35.581Z,39.50
2018-12-25T11:11:05.250Z,40.30
2018-12-25T11:13:49.736Z,40.30
2018-12-25T11:16:31.164Z,41.10
2018-12-25T11:19:11.661Z,39.80
2018-12-25T11:21:51.622Z,40.40
2018-12-25T11:24:31.285Z,39.90
2018-12-25T11:27:11.702Z,40.50
2018-12-25T11:29:51.887Z,39.40
2018-12-25T11:32:31.784Z,36.60
2018-12-25T11:35:11.445Z,37.50
2018-12-25T11:37:52.154Z,37.10
2018-12-25T11:40:31.983Z,36.50
2018-12-25T11:43:12.584Z,35.80
2018-12-25T11:45:52.251Z,35.80
2018-12-25T11:48:32.440Z,37.20
2018-12-25T11:51:12.072Z,36.80
2018-12-25T11:53:52.105Z,37.40
2018-12-25T11:56:32.320Z,39.50
2018-12-25T11:59:12.208Z,37.40
2018-12-25T12:01:52.618Z,37.00
2018-12-25T12:04:32.511Z,37.70
2018-12-25T12:07:13.128Z,37.60
2018-12-25T12:09:53.271Z,35.50
2018-12-25T12:12:33.362Z,35.00
2018-12-25T12:15:13.619Z,34.60
2018-12-25T12:17:53.848Z,33.80
2018-12-25T12:20:35.700Z,32.50
2018-12-25T12:23:17.008Z,32.30
2018-12-25T12:25:57.328Z,32.20
2018-12-25T12:28:38.233Z,31.80
2018-12-25T12:31:19.649Z,32.40
2018-12-25T12:34:03.845Z,33.50
2018-12-25T12:36:45.342Z,32.20
2018-12-25T12:39:25.842Z,32.10
2018-12-25T12:42:06.526Z,31.00
2018-12-25T12:44:47.608Z,28.90
2018-12-25T12:47:28.815Z,29.30
2018-12-25T12:50:09.822Z,29.70
2018-12-25T12:52:50.947Z,29.30
2018-12-25T12:55:39.293Z,29.90
2018-12-25T12:58:26.190Z,29.30
2018-12-25T13:01:06.558Z,30.70
2018-12-25T13:03:46.617Z,29.20
2018-12-25T13:09:16.117Z,30.40
2018-12-25T13:14:38.278Z,29.40
2018-12-25T13:20:07.422Z,29.40
2018-12-25T13:22:36.458Z,29.50
2018-12-25T13:25:24.100Z,29.50
2018-12-25T13:27:55.487Z,29.30
2018-12-25T13:33:41.744Z,26.50
2018-12-25T13:36:12.923Z,26.70
2018-12-25T13:38:59.936Z,27.70
2018-12-25T13:42:10.399Z,29.20
2018-12-25T13:45:02.701Z,28.30
2018-12-25T13:47:49.222Z,27.90
2018-12-25T13:50:59.923Z,26.30
2018-12-25T13:54:08.526Z,27.90
2018-12-25T13:56:50.577Z,27.20
2018-12-25T14:02:20.195Z,26.80
2018-12-25T14:04:58.553Z,27.20
2018-12-25T14:07:29.734Z,26.90
2018-12-25T14:10:10.256Z,27.90
2018-12-25T14:12:37.743Z,27.10
2018-12-25T14:15:25.428Z,27.30
2018-12-25T14:20:54.241Z,26.80
2018-12-25T14:23:29.663Z,27.40
2018-12-25T14:26:16.337Z,28.00
2018-12-25T14:28:46.067Z,27.60
2018-12-25T14:31:33.060Z,27.80
2018-12-25T14:34:13.407Z,27.80
2018-12-25T14:36:53.563Z,29.20
2018-12-25T14:39:33.248Z,27.90
2018-12-25T14:42:13.871Z,29.10
2018-12-25T14:44:47.044Z,28.50
2018-12-25T14:47:33.874Z,29.10
2018-12-25T14:50:23.476Z,29.20
2018-12-25T14:56:10.153Z,28.80
2018-12-25T14:58:53.001Z,29.10
2018-12-25T15:01:36.257Z,28.30
2018-12-25T15:07:09.284Z,29.10
2018-12-25T15:09:50.728Z,28.90
2018-12-25T15:12:31.947Z,27.60
2018-12-25T15:15:12.996Z,27.60
2018-12-25T15:17:54.100Z,28.50
2018-12-25T15:20:35.052Z,28.20
2018-12-25T15:23:07.662Z,28.50
2018-12-25T15:25:56.839Z,28.00
2018-12-25T15:28:37.772Z,28.20
2018-12-25T15:31:22.352Z,28.10
2018-12-25T15:34:03.368Z,28.70
2018-12-25T15:39:34.105Z,28.80
2018-12-25T15:42:02.914Z,28.70
2018-12-25T15:44:51.774Z,28.50
2018-12-25T15:47:21.647Z,28.70
2018-12-25T15:50:10.823Z,29.90
2018-12-25T15:52:40.383Z,30.20
2018-12-25T15:55:29.226Z,29.30
2018-12-25T15:58:11.489Z,28.70
2018-12-25T16:00:55.426Z,29.00
2018-12-25T16:03:36.944Z,29.30
2018-12-25T16:06:17.659Z,28.60
2018-12-25T16:08:58.903Z,28.90
2018-12-25T16:11:40.168Z,28.60
2018-12-25T16:14:20.612Z,29.60
2018-12-25T16:17:02.110Z,29.20
2018-12-25T16:19:44.207Z,30.00
2018-12-25T16:22:13.999Z,29.80
2018-12-25T16:25:02.583Z,29.50
2018-12-25T16:27:32.495Z,30.30
2018-12-25T16:30:21.242Z,30.70
2018-12-25T16:32:51.898Z,31.10
2018-12-25T16:35:40.500Z,30.80
2018-12-25T16:38:10.482Z,30.90
2018-12-25T16:40:59.225Z,30.60
2018-12-25T16:43:28.993Z,30.40
2018-12-25T16:49:06.102Z,30.00
2018-12-25T16:54:41.218Z,30.10
2018-12-25T16:57:22.543Z,30.50
2018-12-25T17:00:03.680Z,29.50
2018-12-25T17:02:44.728Z,31.30
2018-12-25T17:05:26.038Z,30.00
2018-12-25T17:08:07.390Z,30.60
2018-12-25T17:10:48.392Z,30.00
2018-12-25T17:13:29.088Z,30.30
2018-12-25T17:16:01.706Z,30.40
2018-12-25T17:18:43.084Z,30.40
2018-12-25T17:21:24.830Z,30.20
2018-12-25T17:24:05.929Z,30.50
2018-12-25T17:26:46.652Z,30.70
2018-12-25T17:32:18.723Z,30.70
2018-12-25T17:35:00.301Z,29.70
2018-12-25T17:37:41.923Z,29.80
2018-12-25T17:40:22.966Z,30.20
2018-12-25T17:43:04.050Z,30.40
2018-12-25T17:45:45.111Z,29.20
2018-12-25T17:48:26.268Z,28.70
2018-12-25T17:51:07.650Z,28.70
2018-12-25T17:53:35.897Z,28.80
2018-12-25T17:59:24.879Z,28.60
2018-12-25T18:02:04.606Z,28.60
2018-12-25T18:04:44.807Z,28.70
2018-12-25T18:07:24.813Z,28.90
2018-12-25T18:10:04.949Z,29.40
2018-12-25T18:12:45.846Z,30.00
2018-12-25T18:15:21.097Z,29.80
2018-12-25T18:18:02.944Z,29.90
2018-12-25T18:20:44.065Z,30.50
2018-12-25T18:23:24.996Z,30.00
2018-12-25T18:25:56.075Z,30.00
2018-12-25T18:28:45.944Z,29.60
2018-12-25T18:31:18.803Z,29.20
2018-12-25T18:34:12.179Z,29.40
2018-12-25T18:36:54.388Z,29.20
2018-12-25T18:39:36.467Z,29.70
2018-12-25T18:42:23.229Z,29.40
2018-12-25T18:45:00.678Z,29.00
2018-12-25T18:47:42.246Z,29.10
2018-12-25T18:50:14.160Z,29.90
2018-12-25T18:53:11.131Z,29.00
2018-12-25T18:55:53.031Z,29.80
2018-12-25T18:58:33.662Z,30.00
2018-12-25T19:01:14.221Z,29.20
2018-12-25T19:03:55.695Z,29.30
2018-12-25T19:06:36.199Z,29.60
2018-12-25T19:09:17.444Z,29.10
2018-12-25T19:12:05.601Z,28.70
2018-12-25T19:14:45.418Z,28.90
2018-12-25T19:17:27.446Z,29.00
2018-12-25T19:22:58.587Z,29.30
2018-12-25T19:25:40.537Z,28.80
2018-12-25T19:28:21.040Z,29.70
2018-12-25T19:31:04.159Z,31.10
2018-12-25T19:33:44.178Z,29.70
2018-12-25T19:36:24.668Z,30.80
2018-12-25T19:39:05.489Z,29.90
2018-12-25T19:41:46.474Z,29.80
2018-12-25T19:47:18.533Z,30.50
2018-12-25T19:49:59.602Z,30.30
2018-12-25T19:52:40.908Z,29.90
2018-12-25T19:55:21.611Z,30.40
2018-12-25T19:58:02.606Z,30.30
2018-12-25T20:00:43.531Z,31.20
2018-12-25T20:03:24.768Z,30.60
2018-12-25T20:06:32.719Z,30.10
2018-12-25T20:09:39.032Z,30.50
2018-12-25T20:12:18.419Z,31.00
2018-12-25T20:15:12.900Z,30.70
2018-12-25T20:17:55.942Z,31.40
2018-12-25T20:20:40.109Z,31.30
2018-12-25T20:23:21.883Z,31.40
2018-12-25T20:29:11.890Z,32.10
2018-12-25T20:32:19.352Z,32.30
2018-12-25T20:35:00.338Z,31.30
2018-12-25T20:37:41.670Z,31.90
2018-12-25T20:44:04.011Z,31.50
2018-12-25T20:46:45.662Z,32.80
2018-12-25T20:49:26.655Z,32.90
2018-12-25T20:52:07.649Z,32.60
2018-12-25T20:54:49.074Z,32.70
2018-12-25T21:04:36.614Z,32.70
2018-12-25T21:07:20.223Z,32.40
2018-12-25T21:10:01.413Z,33.00
2018-12-25T21:15:35.754Z,31.60
2018-12-25T21:18:15.606Z,31.80
2018-12-25T21:21:15.011Z,31.80
2018-12-25T21:24:23.734Z,32.30
2018-12-25T21:27:27.435Z,32.10
2018-12-25T21:29:56.250Z,31.40
2018-12-25T21:32:24.301Z,31.50
2018-12-25T21:34:59.594Z,31.50
2018-12-25T21:37:27.359Z,31.70
2018-12-25T21:39:55.293Z,31.80
2018-12-25T21:42:24.484Z,30.60
2018-12-25T21:44:54.539Z,30.40
2018-12-25T21:47:24.779Z,31.00
2018-12-25T21:49:53.635Z,30.60
2018-12-25T21:52:22.340Z,30.80
2018-12-25T21:54:51.303Z,33.40
2018-12-25T21:57:19.551Z,32.80
2018-12-25T21:59:47.976Z,31.90
2018-12-25T22:02:16.342Z,32.20
2018-12-25T22:04:46.247Z,31.90
2018-12-25T22:07:13.485Z,32.60
2018-12-25T22:09:40.983Z,32.70
2018-12-25T22:12:08.748Z,33.00
2018-12-25T22:14:37.326Z,33.50
2018-12-25T22:17:05.513Z,33.70
2018-12-25T22:19:33.906Z,34.00
2018-12-25T22:22:02.230Z,33.90
2018-12-25T22:24:30.648Z,34.30
2018-12-25T22:26:59.280Z,34.70
2018-12-25T22:29:27.349Z,34.70
2018-12-25T22:31:56.168Z,34.70
2018-12-25T22:34:23.502Z,35.00
2018-12-25T22:36:50.587Z,35.80
2018-12-25T22:39:18.663Z,35.80
2018-12-25T22:41:46.324Z,35.30
2018-12-25T22:44:15.209Z,35.80
2018-12-25T22:46:43.616Z,36.50
2018-12-25T22:49:12.200Z,36.00
2018-12-25T22:51:40.462Z,36.10
2018-12-25T22:54:08.934Z,37.20
2018-12-25T22:56:37.639Z,38.20
2018-12-25T22:59:08.495Z,38.20
2018-12-25T23:01:36.542Z,37.60
2018-12-25T23:04:05.466Z,37.80
2018-12-25T23:06:33.153Z,38.10
2018-12-25T23:09:00.231Z,37.90
2018-12-25T23:11:27.493Z,38.10
2018-12-25T23:13:55.066Z,38.00
2018-12-25T23:16:22.537Z,38.10
2018-12-25T23:18:50.873Z,38.00
2018-12-25T23:21:19.595Z,37.90
2018-12-25T23:23:47.930Z,37.70
2018-12-25T23:26:17.655Z,39.50
2018-12-25T23:28:45.775Z,38.10
2018-12-25T23:31:19.924Z,38.00
2018-12-25T23:33:48.159Z,38.50
2018-12-25T23:36:16.304Z,38.10
2018-12-25T23:38:44.411Z,38.00
2018-12-25T23:41:11.565Z,38.00
2018-12-25T23:43:38.749Z,37.90
2018-12-25T23:46:05.829Z,38.40
2018-12-25T23:48:32.812Z,37.90
2018-12-25T23:50:59.982Z,37.90
2018-12-25T23:53:30.021Z,38.60
2018-12-25T23:55:58.508Z,38.40
